Time;durP1;ratioP1;P1;durP2;ratioP2;P2;SDS_P1;SDS_P2;PMS_P1;PMS_P2;Temp;Humidity;BMP_temperature;BMP_pressure;BME280_temperature;BME280_humidity;BME280_pressure;Samples;Min_cycle;Max_cycle;Signal;HPM_P1;HPM_P2
2022/01/09 00:00:37;;;;;;;39.25;6.78;;;;;;;-146.64;100.00;76403.06;5086913;27;20027;-77
2022/01/09 00:03:02;;;;;;;52.25;6.90;;;;;;;-146.64;100.00;74816.84;5106662;27;20313;-76
2022/01/09 00:05:28;;;;;;;55.83;8.40;;;;;;;-146.64;100.00;70325.94;5131239;28;20023;-77
2022/01/09 00:07:53;;;;;;;46.20;7.00;;;;;;;-146.64;100.00;68478.19;5112609;28;20535;-77
2022/01/09 00:10:19;;;;;;;41.78;6.57;;;;;;;-146.64;100.00;65576.34;5095458;28;20019;-77
2022/01/09 00:12:45;;;;;;;55.03;7.80;;;;;;;-146.64;100.00;57936.13;5080371;28;20386;-77
2022/01/09 00:15:11;;;;;;;41.03;7.43;;;;;;;-146.64;100.00;59252.38;5125487;27;20027;-77
2022/01/09 00:17:37;;;;;;;38.83;5.10;;;;;;;-146.64;100.00;56094.16;5101263;28;20033;-76
2022/01/09 00:20:04;;;;;;;56.85;7.18;;;;;;;-146.64;100.00;62149.59;5104618;27;20136;-77
2022/01/09 00:22:47;;;;;;;47.55;7.05;;;;;;;-146.64;100.00;65576.34;5112106;28;20023;-76
2022/01/09 00:25:14;;;;;;;48.03;8.10;;;;;;;-146.64;100.00;65840.06;5114575;27;20416;-76
2022/01/09 00:27:40;;;;;;;57.60;7.97;;;;;;;-146.64;100.00;62940.13;5106694;27;20030;-76
2022/01/09 00:30:08;;;;;;;47.15;6.50;;;;;;;-146.64;100.00;62676.59;5114676;27;20076;-76
2022/01/09 00:32:33;;;;;;;50.25;8.52;;;;;;;-146.64;100.00;63994.41;5130260;27;20122;-76
2022/01/09 00:34:59;;;;;;;53.83;7.80;;;;;;;-146.64;100.00;66367.56;5110250;27;20115;-76
2022/01/09 00:37:24;;;;;;;49.20;8.57;;;;;;;-146.64;100.00;61095.81;5098210;27;20561;-76
2022/01/09 00:39:51;;;;;;;56.03;8.57;;;;;;;-146.64;100.00;65576.34;5094575;28;20114;-76
2022/01/09 00:42:17;;;;;;;48.35;7.40;;;;;;;-146.64;100.00;63467.22;5110951;27;20038;-76
2022/01/09 00:44:42;;;;;;;56.63;9.55;;;;;;;-146.64;100.00;62413.09;5110430;27;20049;-76
2022/01/09 00:47:07;;;;;;;41.33;6.80;;;;;;;-146.64;100.00;59252.38;5123860;27;20087;-77
2022/01/09 00:49:33;;;;;;;52.92;7.20;;;;;;;-146.64;100.00;51817.28;5131089;27;20042;-76
2022/01/09 00:51:58;;;;;;;62.55;8.80;;;;;;;-146.64;100.00;53201.31;5084840;28;20124;-77
2022/01/09 00:54:23;;;;;;;57.00;6.60;;;;;;;-146.64;100.00;56094.16;5128784;27;20080;-77
2022/01/09 00:56:49;;;;;;;43.97;6.68;;;;;;;-146.64;100.00;52211.50;5091187;27;20027;-77
2022/01/09 00:59:14;;;;;;;56.90;7.82;;;;;;;-146.64;100.00;56094.16;5132880;27;20081;-77
2022/01/09 01:01:39;;;;;;;44.80;8.60;;;;;;;-146.64;100.00;46687.88;5103167;28;20042;-76
2022/01/09 01:04:05;;;;;;;52.38;7.00;;;;;;;-146.64;100.00;48800.41;5127271;27;20050;-76
2022/01/09 01:06:30;;;;;;;50.28;8.00;;;;;;;-146.64;100.00;49477.47;5113192;27;20023;-76
2022/01/09 01:08:58;;;;;;;64.90;8.23;;;;;;;-146.64;100.00;50261.34;5131830;27;20111;-76
2022/01/09 01:11:24;;;;;;;39.08;6.15;;;;;;;-146.64;100.00;45855.50;5111143;27;20025;-77
2022/01/09 01:13:49;;;;;;;43.70;6.78;;;;;;;-146.64;100.00;46759.66;5133124;27;20110;-76
2022/01/09 01:16:14;;;;;;;50.40;7.32;;;;;;;-146.64;100.00;45773.50;5098156;27;20553;-76
2022/01/09 01:18:43;;;;;;;55.10;9.18;;;;;;;-146.64;100.00;43963.78;5133396;27;20034;-76
2022/01/09 01:21:08;;;;;;;56.40;8.20;;;;;;;-146.64;100.00;44691.28;5097258;28;20032;-76
2022/01/09 01:23:34;;;;;;;49.88;6.75;;;;;;;-146.64;100.00;43086.91;5112507;27;20057;-76
2022/01/09 01:26:01;;;;;;;47.97;6.55;;;;;;;-146.64;100.00;43052.09;5108937;27;20112;-77
2022/01/09 01:28:27;;;;;;;44.92;6.65;;;;;;;-146.64;100.00;43490.50;5114876;27;20023;-76
2022/01/09 01:30:52;;;;;;;35.65;5.85;;;;;;;-146.64;100.00;42847.25;5093877;28;20031;-76
2022/01/09 01:33:18;;;;;;;54.08;6.53;;;;;;;-146.64;100.00;42687.47;5107205;27;20023;-76
2022/01/09 01:35:44;;;;;;;43.47;7.05;;;;;;;-146.64;100.00;41622.47;5085124;27;20030;-76
2022/01/09 01:38:09;;;;;;;36.03;7.10;;;;;;;-146.64;100.00;41548.75;5096870;27;20027;-76
2022/01/09 01:40:34;;;;;;;52.92;6.57;;;;;;;-146.64;100.00;41176.06;5097673;27;20023;-76
2022/01/09 01:43:00;;;;;;;38.58;6.88;;;;;;;-146.64;100.00;41067.56;5120883;27;20047;-76
2022/01/09 01:45:25;;;;;;;51.78;7.30;;;;;;;-146.64;100.00;40893.53;5097263;27;20031;-76
2022/01/09 01:47:50;;;;;;;41.20;6.15;;;;;;;-146.64;100.00;41110.56;5107282;27;20054;-76
2022/01/09 01:50:16;;;;;;;41.97;6.45;;;;;;;-146.64;100.00;41343.97;5131797;27;20034;-76
2022/01/09 01:52:47;;;;;;;47.80;5.85;;;;;;;-146.64;100.00;41309.16;5128584;27;20373;-76
2022/01/09 01:55:13;;;;;;;46.97;6.97;;;;;;;-146.64;100.00;41659.31;5130192;27;20120;-76
2022/01/09 01:57:40;;;;;;;40.30;6.47;;;;;;;-146.64;100.00;41497.56;5108809;28;20386;-76
2022/01/09 02:00:06;;;;;;;;;;;;;;;-146.64;100.00;41503.69;5104037;27;20117;-75
2022/01/09 02:02:40;;;;;;;38.08;6.20;;;;;;;-146.64;100.00;41266.16;5106353;28;19912;-76
2022/01/09 02:05:06;;;;;;;33.75;4.32;;;;;;;-146.64;100.00;41569.22;5114458;27;20792;-76
2022/01/09 02:07:32;;;;;;;45.38;6.43;;;;;;;-146.64;100.00;41565.13;5132499;27;20023;-76
2022/01/09 02:09:57;;;;;;;36.55;4.03;;;;;;;-146.64;100.00;41155.59;5087385;28;20028;-76
2022/01/09 02:12:23;;;;;;;34.55;4.40;;;;;;;-146.64;100.00;41337.84;5111603;27;20027;-76
2022/01/09 02:14:48;;;;;;;27.67;5.85;;;;;;;-146.64;100.00;41241.59;5106142;27;20034;-76
2022/01/09 02:17:43;;;;;;;28.05;5.13;;;;;;;-146.64;100.00;41294.84;5097187;27;20057;-76
2022/01/09 02:20:19;;;;;;;44.90;6.43;;;;;;;-146.64;100.00;41309.16;5111386;27;20027;-76
2022/01/09 02:22:44;;;;;;;34.95;5.10;;;;;;;-146.64;100.00;40787.06;5112892;27;20039;-77
2022/01/09 02:25:10;;;;;;;41.42;5.25;;;;;;;-146.64;100.00;41409.50;5109701;27;20031;-76
2022/01/09 02:27:35;;;;;;;37.53;5.13;;;;;;;-146.64;100.00;41075.75;5111367;27;20031;-76
2022/01/09 02:30:01;;;;;;;30.63;4.63;;;;;;;-146.64;100.00;41106.47;5112585;27;20558;-76
2022/01/09 02:32:26;;;;;;;39.60;5.80;;;;;;;-146.64;100.00;40907.84;5093235;28;20498;-76
2022/01/09 02:34:51;;;;;;;33.25;5.43;;;;;;;-146.64;100.00;41036.84;5089409;27;20091;-76
2022/01/09 02:37:17;;;;;;;33.30;5.03;;;;;;;-146.64;100.00;41008.19;5108795;27;20027;-76
2022/01/09 02:39:45;;;;;;;32.10;4.53;;;;;;;-146.64;100.00;40721.53;5106810;27;20589;-76
2022/01/09 02:42:30;;;;;;;36.70;6.05;;;;;;;-146.64;100.00;40684.69;5111819;27;20023;-76
2022/01/09 02:44:56;;;;;;;31.67;4.57;;;;;;;-146.64;100.00;40672.41;5105362;27;20065;-76
2022/01/09 02:47:22;;;;;;;37.40;5.65;;;;;;;-146.64;100.00;40813.66;5109639;27;20106;-76
2022/01/09 02:49:51;;;;;;;33.08;5.32;;;;;;;-146.64;100.00;40664.22;5092415;27;20077;-76
2022/01/09 02:52:48;;;;;;;28.77;4.72;;;;;;;-146.64;100.00;40635.56;5109875;27;20055;-76
2022/01/09 02:55:14;;;;;;;23.17;3.75;;;;;;;-146.64;100.00;40565.94;5092129;27;20050;-76
2022/01/09 02:57:41;;;;;;;34.40;4.55;;;;;;;-146.64;100.00;40668.31;5109563;27;20467;-76
2022/01/09 03:00:07;;;;;;;;;;;;;;;-146.64;100.00;40586.41;5103530;27;20480;-76
2022/01/09 03:02:33;;;;;;;30.15;4.30;;;;;;;-146.64;100.00;40584.38;5112533;27;19911;-76
2022/01/09 03:04:58;;;;;;;41.30;5.85;;;;;;;-146.64;100.00;40539.34;5113083;27;20102;-76
2022/01/09 03:07:23;;;;;;;24.83;3.40;;;;;;;-146.64;100.00;40572.09;5108285;27;20034;-76
2022/01/09 03:09:49;;;;;;;22.35;4.20;;;;;;;-146.64;100.00;40590.50;5112938;27;20023;-76
2022/01/09 03:12:15;;;;;;;32.17;3.85;;;;;;;-146.64;100.00;40594.59;5095092;27;20374;-76
2022/01/09 03:14:40;;;;;;;20.90;3.33;;;;;;;-146.64;100.00;40479.97;5116895;27;20034;-76
2022/01/09 03:17:05;;;;;;;28.50;4.95;;;;;;;-146.64;100.00;40512.72;5124839;27;20405;-76
2022/01/09 03:19:31;;;;;;;30.55;5.07;;;;;;;-146.64;100.00;40463.59;5107437;27;20113;-76
2022/01/09 03:21:56;;;;;;;29.80;3.90;;;;;;;-146.64;100.00;40332.56;5095380;27;20134;-76
2022/01/09 03:24:21;;;;;;;21.25;4.60;;;;;;;-146.64;100.00;40443.13;5109266;27;20027;-76
2022/01/09 03:26:47;;;;;;;30.60;4.68;;;;;;;-146.64;100.00;40310.03;5105092;27;20122;-76
2022/01/09 03:29:14;;;;;;;23.15;3.25;;;;;;;-146.64;100.00;40418.53;5095753;27;20554;-76
2022/01/09 03:31:39;;;;;;;24.63;4.30;;;;;;;-146.64;100.00;40373.50;5123816;27;20015;-76
2022/01/09 03:34:05;;;;;;;28.27;3.90;;;;;;;-146.64;100.00;40463.59;5111293;27;20038;-76
2022/01/09 03:36:33;;;;;;;19.38;3.75;;;;;;;-146.64;100.00;40504.53;5104477;28;20020;-76
2022/01/09 03:38:59;;;;;;;22.52;3.33;;;;;;;-146.64;100.00;40402.16;5095851;27;20390;-76
2022/01/09 03:41:24;;;;;;;31.92;3.85;;;;;;;-146.64;100.00;40436.97;5105810;28;20019;-76
2022/01/09 03:43:49;;;;;;;20.80;2.78;;;;;;;-146.64;100.00;40430.81;5091525;27;20084;-77
2022/01/09 03:46:15;;;;;;;25.98;4.15;;;;;;;-146.64;100.00;40361.22;5088221;28;20034;-76
2022/01/09 03:48:40;;;;;;;25.05;3.17;;;;;;;-146.64;100.00;40367.38;5118029;28;20031;-76
2022/01/09 03:51:05;;;;;;;24.10;4.18;;;;;;;-146.64;100.00;40336.66;5110937;28;20494;-76
2022/01/09 03:53:33;;;;;;;24.35;4.07;;;;;;;-146.64;100.00;40412.41;5103449;28;20050;-76
2022/01/09 03:55:59;;;;;;;22.00;3.55;;;;;;;-146.64;100.00;40459.50;5122336;27;20117;-76
2022/01/09 03:58:24;;;;;;;23.33;3.25;;;;;;;-146.64;100.00;40291.63;5109987;28;20073;-76
2022/01/09 04:00:49;;;;;;;24.58;4.18;;;;;;;-146.64;100.00;40336.66;5105199;27;20038;-76
2022/01/09 04:03:15;;;;;;;16.40;3.80;;;;;;;-146.64;100.00;40232.25;5113029;27;20043;-76
2022/01/09 04:05:48;;;;;;;16.85;3.60;;;;;;;-146.64;100.00;40295.72;5111314;27;20112;-76
2022/01/09 04:08:13;;;;;;;15.75;3.05;;;;;;;-146.64;100.00;40262.97;5114494;27;20024;-76
2022/01/09 04:10:43;;;;;;;10.73;3.10;;;;;;;-146.64;100.00;40226.13;5111252;27;20180;-76
2022/01/09 04:13:12;;;;;;;18.23;2.72;;;;;;;-146.64;100.00;40236.34;5096539;27;20030;-76
2022/01/09 04:15:49;;;;;;;18.98;2.90;;;;;;;-146.64;100.00;40254.78;5114818;27;20023;-75
2022/01/09 04:18:19;;;;;;;22.65;2.58;;;;;;;-146.64;100.00;40279.34;5110029;27;20130;-76
2022/01/09 04:20:45;;;;;;;22.23;3.17;;;;;;;-146.64;100.00;40336.66;5107534;27;20019;-76
2022/01/09 04:23:11;;;;;;;25.48;3.92;;;;;;;-146.64;100.00;40340.75;5095663;27;20016;-76
2022/01/09 04:25:37;;;;;;;26.10;3.90;;;;;;;-146.64;100.00;40353.03;5099073;27;20027;-76
2022/01/09 04:28:03;;;;;;;24.83;3.42;;;;;;;-146.64;100.00;40346.91;5111943;27;20557;-76
2022/01/09 04:30:29;;;;;;;23.63;3.90;;;;;;;-146.64;100.00;40324.38;5112697;27;20474;-76
2022/01/09 04:32:54;;;;;;;34.22;3.70;;;;;;;-146.64;100.00;40338.72;5095988;27;20513;-76
2022/01/09 04:35:20;;;;;;;23.02;3.00;;;;;;;-146.64;100.00;40303.91;5107420;27;20035;-76
2022/01/09 04:37:47;;;;;;;19.13;3.67;;;;;;;-146.64;100.00;40353.03;5130727;27;20023;-76
2022/01/09 04:40:14;;;;;;;15.93;2.75;;;;;;;-146.64;100.00;40312.09;5105535;27;20154;-76
2022/01/09 04:42:53;;;;;;;26.83;4.05;;;;;;;-146.64;100.00;40398.06;5114924;27;20023;-76
2022/01/09 04:45:19;;;;;;;31.33;4.07;;;;;;;-146.64;100.00;40414.44;5131322;27;20031;-76
2022/01/09 04:47:47;;;;;;;21.13;3.28;;;;;;;-146.64;100.00;40402.16;5113791;27;20410;-76
2022/01/09 04:50:18;;;;;;;18.17;3.47;;;;;;;-146.64;100.00;40516.81;5112455;27;20489;-76
2022/01/09 04:52:44;;;;;;;18.70;3.85;;;;;;;-146.64;100.00;40461.53;5115104;27;20034;-76
2022/01/09 04:55:10;;;;;;;17.85;3.53;;;;;;;-146.64;100.00;40553.66;5095313;27;20023;-76
2022/01/09 04:57:35;;;;;;;25.55;3.47;;;;;;;-146.64;100.00;40570.03;5115437;27;20365;-76
2022/01/09 05:00:00;;;;;;;20.60;3.42;;;;;;;-146.64;100.00;40557.75;5096626;27;20019;-76
2022/01/09 05:02:26;;;;;;;21.20;2.97;;;;;;;-146.64;100.00;40547.53;5098180;27;20019;-76
2022/01/09 05:04:51;;;;;;;16.42;2.63;;;;;;;-146.64;100.00;40537.28;5108496;27;20038;-76
2022/01/09 05:07:17;;;;;;;22.08;3.47;;;;;;;-146.64;100.00;40660.13;5114811;27;20019;-76
2022/01/09 05:09:42;;;;;;;21.75;3.53;;;;;;;-146.64;100.00;40676.50;5125384;27;20078;-76
2022/01/09 05:12:08;;;;;;;17.75;3.67;;;;;;;-146.64;100.00;40584.38;5115311;27;20027;-76
2022/01/09 05:14:33;;;;;;;22.65;3.47;;;;;;;-146.64;100.00;40701.06;5113748;27;20030;-76
2022/01/09 05:16:58;;;;;;;17.20;3.53;;;;;;;-146.64;100.00;40742.00;5115034;27;20023;-76
2022/01/09 05:19:28;;;;;;;22.42;3.97;;;;;;;-146.64;100.00;40606.88;5103399;27;20015;-76
2022/01/09 05:21:55;;;;;;;17.30;3.28;;;;;;;-146.64;100.00;40651.94;5098486;27;20058;-76
2022/01/09 05:24:20;;;;;;;26.08;5.15;;;;;;;-146.64;100.00;40721.53;5130995;27;20026;-76
2022/01/09 05:26:45;;;;;;;21.52;3.90;;;;;;;-146.64;100.00;40703.13;5097462;27;20035;-76
2022/01/09 05:29:11;;;;;;;26.83;3.97;;;;;;;-146.64;100.00;40754.28;5114559;27;20460;-76
2022/01/09 05:31:36;;;;;;;21.85;4.25;;;;;;;-146.64;100.00;40785.00;5092452;27;20068;-77
2022/01/09 05:34:02;;;;;;;23.08;3.90;;;;;;;-146.64;100.00;40742.00;5093886;28;20394;-76
2022/01/09 05:36:27;;;;;;;29.35;3.58;;;;;;;-146.64;100.00;40668.31;5097341;27;20087;-76
2022/01/09 05:38:53;;;;;;;22.08;4.72;;;;;;;-146.64;100.00;40660.13;5095724;27;20034;-76
2022/01/09 05:41:18;;;;;;;21.15;3.03;;;;;;;-146.64;100.00;40758.38;5095614;27;20031;-76
2022/01/09 05:43:43;;;;;;;28.15;3.92;;;;;;;-146.64;100.00;40791.16;5092726;27;20038;-76
2022/01/09 05:46:08;;;;;;;18.52;3.40;;;;;;;-146.64;100.00;40823.91;5114881;27;20038;-75
2022/01/09 05:48:34;;;;;;;19.20;3.30;;;;;;;-146.64;100.00;40942.66;5112110;27;20050;-76
2022/01/09 05:50:59;;;;;;;20.50;3.35;;;;;;;-146.64;100.00;41014.31;5132616;27;20498;-76
2022/01/09 05:53:24;;;;;;;13.55;2.85;;;;;;;-146.64;100.00;41141.25;5104224;27;20034;-76
2022/01/09 05:55:50;;;;;;;18.10;3.13;;;;;;;-146.64;100.00;41225.22;5132630;27;20050;-76
2022/01/09 05:58:15;;;;;;;17.65;3.00;;;;;;;-146.64;100.00;41528.28;5111501;27;20059;-76
2022/01/09 06:00:40;;;;;;;23.83;5.00;;;;;;;-146.64;100.00;41937.84;5096875;27;20027;-76
2022/01/09 06:03:06;;;;;;;28.00;3.70;;;;;;;-146.64;100.00;41614.28;5084808;27;20491;-76
2022/01/09 06:05:31;;;;;;;17.42;3.80;;;;;;;-146.64;100.00;41700.28;5091149;28;20348;-76
2022/01/09 06:07:56;;;;;;;26.65;4.10;;;;;;;-146.64;100.00;41339.88;5103941;27;20037;-76
2022/01/09 06:10:22;;;;;;;21.33;4.20;;;;;;;-146.64;100.00;41532.38;5112412;27;20497;-76
2022/01/09 06:12:47;;;;;;;22.98;3.53;;;;;;;-146.64;100.00;41057.31;5108338;27;20027;-76
2022/01/09 06:15:12;;;;;;;27.40;3.45;;;;;;;-146.64;100.00;40922.19;5094246;27;20039;-76
2022/01/09 06:17:39;;;;;;;15.98;3.20;;;;;;;-146.64;100.00;40858.72;5101967;27;20063;-76
2022/01/09 06:20:07;;;;;;;19.65;3.40;;;;;;;-146.64;100.00;40877.13;5111295;27;20023;-76
2022/01/09 06:22:32;;;;;;;16.17;3.90;;;;;;;-146.64;100.00;41057.31;5110459;27;20109;-76
2022/01/09 06:24:57;;;;;;;22.08;5.13;;;;;;;-146.64;100.00;40954.94;5130442;27;20034;-76
2022/01/09 06:27:23;;;;;;;29.27;4.32;;;;;;;-146.64;100.00;40893.53;5096018;27;20382;-76
2022/01/09 06:29:48;;;;;;;35.83;5.47;;;;;;;-146.64;100.00;40918.09;5096551;27;20530;-76
2022/01/09 06:32:14;;;;;;;19.85;3.80;;;;;;;-146.64;100.00;40848.47;5092751;28;20025;-76
2022/01/09 06:34:41;;;;;;;20.45;5.07;;;;;;;-146.64;100.00;40907.84;5086969;27;20121;-76
2022/01/09 06:37:06;;;;;;;21.88;3.92;;;;;;;-146.64;100.00;40815.72;5095617;27;20242;-76
2022/01/09 06:39:32;;;;;;;21.23;3.80;;;;;;;-146.64;100.00;40725.63;5096627;27;20137;-76
2022/01/09 06:41:57;;;;;;;27.10;3.70;;;;;;;-146.64;100.00;40875.09;5105727;27;20019;-76
2022/01/09 06:44:22;;;;;;;18.75;3.60;;;;;;;-146.64;100.00;40959.03;5131376;27;20239;-76
2022/01/09 06:46:47;;;;;;;20.73;3.72;;;;;;;-146.64;100.00;41311.22;5122259;27;20037;-76
2022/01/09 06:49:13;;;;;;;20.90;4.15;;;;;;;-146.64;100.00;41208.84;5103857;27;20098;-76
2022/01/09 06:51:38;;;;;;;17.20;3.22;;;;;;;-146.64;100.00;41448.41;5104479;27;20617;-76
2022/01/09 06:54:03;;;;;;;24.83;3.45;;;;;;;-146.64;100.00;41968.56;5131986;27;20120;-76
2022/01/09 06:56:29;;;;;;;20.65;3.22;;;;;;;-146.64;100.00;42832.91;5094360;27;20031;-76
2022/01/09 06:58:54;;;;;;;22.02;3.50;;;;;;;-146.64;100.00;42773.50;5112748;27;20042;-76
2022/01/09 07:01:20;;;;;;;16.92;2.63;;;;;;;-146.64;100.00;42943.53;5110060;27;20067;-76
2022/01/09 07:03:45;;;;;;;16.38;3.38;;;;;;;-146.64;100.00;43349.13;5096123;27;20023;-76
2022/01/09 07:06:11;;;;;;;27.98;4.13;;;;;;;-146.64;100.00;43404.47;5094795;28;20433;-76
2022/01/09 07:08:36;;;;;;;15.60;3.28;;;;;;;-146.64;100.00;42259.38;5100375;27;20244;-76
2022/01/09 07:11:03;;;;;;;16.20;2.70;;;;;;;-146.64;100.00;43109.44;5110052;27;20031;-77
2022/01/09 07:13:28;;;;;;;21.00;4.22;;;;;;;-146.64;100.00;43679.00;5112304;27;20031;-76
2022/01/09 07:15:54;;;;;;;22.73;4.25;;;;;;;-146.64;100.00;43789.63;5110466;27;20046;-78
2022/01/09 07:18:19;;;;;;;21.33;3.13;;;;;;;-146.64;100.00;42693.63;5107837;27;20023;-76
2022/01/09 07:20:44;;;;;;;19.85;3.72;;;;;;;-146.64;100.00;41974.72;5110286;27;20060;-76
2022/01/09 07:23:09;;;;;;;20.88;3.42;;;;;;;-146.64;100.00;41874.34;5098201;27;20038;-76
2022/01/09 07:25:35;;;;;;;19.88;3.30;;;;;;;-146.64;100.00;41427.94;5092336;28;20494;-76
2022/01/09 07:28:02;;;;;;;22.23;4.45;;;;;;;-146.64;100.00;41325.53;5107691;27;20043;-76
2022/01/09 07:30:28;;;;;;;18.52;3.40;;;;;;;-146.64;100.00;41483.22;5107219;27;20130;-77
2022/01/09 07:32:53;;;;;;;18.98;3.22;;;;;;;-146.64;100.00;41819.06;5100286;28;20035;-76
2022/01/09 07:35:19;;;;;;;17.27;2.88;;;;;;;-146.64;100.00;42064.81;5088486;27;20070;-76
2022/01/09 07:37:44;;;;;;;20.48;3.50;;;;;;;-146.64;100.00;42122.16;5111012;27;20106;-76
2022/01/09 07:40:10;;;;;;;22.00;2.78;;;;;;;-146.64;100.00;41659.31;5122754;27;20102;-76
2022/01/09 07:42:35;;;;;;;18.83;3.45;;;;;;;-146.64;100.00;42097.59;5086192;28;20035;-76
2022/01/09 07:45:01;;;;;;;10.40;2.75;;;;;;;-146.64;100.00;42499.03;5100317;27;20085;-76
2022/01/09 07:47:26;;;;;;;13.98;2.72;;;;;;;-146.64;100.00;43472.06;5105225;28;20020;-76
2022/01/09 07:49:51;;;;;;;13.05;2.95;;;;;;;-146.64;100.00;43687.19;5103944;28;20031;-76
2022/01/09 07:52:17;;;;;;;17.77;3.92;;;;;;;-146.64;100.00;45254.88;5125845;27;20065;-76
2022/01/09 07:54:42;;;;;;;20.52;3.22;;;;;;;-146.64;100.00;46427.47;5108162;28;20050;-76
2022/01/09 07:57:08;;;;;;;22.08;3.55;;;;;;;-146.64;100.00;45086.81;5103282;28;20084;-76
2022/01/09 07:59:33;;;;;;;23.17;3.33;;;;;;;-146.64;100.00;45371.72;5128005;27;20031;-76
2022/01/09 08:01:58;;;;;;;15.38;2.67;;;;;;;-146.64;100.00;43881.84;5091628;28;20028;-76
2022/01/09 08:04:24;;;;;;;14.93;2.72;;;;;;;-146.64;100.00;42851.34;5108393;28;20387;-76
2022/01/09 08:06:49;;;;;;;17.42;3.58;;;;;;;-146.64;100.00;42478.53;5114437;27;20108;-76
2022/01/09 08:09:14;;;;;;;20.48;2.85;;;;;;;-146.64;100.00;43283.59;5126067;27;20023;-76
2022/01/09 08:11:39;;;;;;;17.63;3.10;;;;;;;-146.64;100.00;43035.69;5081547;28;20080;-77
2022/01/09 08:14:05;;;;;;;17.65;3.25;;;;;;;-146.64;100.00;42273.72;5103930;28;20042;-77
2022/01/09 08:16:30;;;;;;;17.55;2.95;;;;;;;-146.64;100.00;42281.91;5095089;27;20096;-77
2022/01/09 08:18:55;;;;;;;22.70;3.65;;;;;;;-146.64;100.00;42898.44;5101843;28;20031;-77
2022/01/09 08:21:21;;;;;;;21.30;2.90;;;;;;;-146.64;100.00;43715.88;5110043;28;20039;-76
2022/01/09 08:23:47;;;;;;;22.95;3.53;;;;;;;-146.64;100.00;45386.06;5092030;28;20023;-76
2022/01/09 08:26:14;;;;;;;19.38;4.60;;;;;;;-146.64;100.00;44631.84;5095582;28;20398;-76
2022/01/09 08:28:42;;;;;;;30.90;11.48;;;;;;;-146.64;100.00;45203.66;5094866;27;20034;-76
2022/01/09 08:31:08;;;;;;;22.70;6.65;;;;;;;-146.64;100.00;43187.28;5088059;28;20035;-77
2022/01/09 08:33:33;;;;;;;20.58;4.55;;;;;;;-146.64;100.00;42646.50;5095379;28;20156;-77
2022/01/09 08:35:59;;;;;;;26.55;4.78;;;;;;;-146.64;100.00;42154.94;5093850;27;20031;-77
2022/01/09 08:38:25;;;;;;;24.40;4.25;;;;;;;-146.64;100.00;42150.84;5094513;28;20027;-76
2022/01/09 08:40:56;;;;;;;19.65;4.93;;;;;;;-146.64;100.00;42159.03;5107012;27;20031;-76
2022/01/09 08:43:21;;;;;;;22.05;3.58;;;;;;;-146.64;100.00;41479.13;5125768;28;20084;-76
2022/01/09 08:45:47;;;;;;;20.83;3.42;;;;;;;-146.64;100.00;41290.75;5111931;28;20114;-76
2022/01/09 08:48:12;;;;;;;33.45;3.15;;;;;;;-146.64;100.00;41196.53;5110140;28;20035;-77
2022/01/09 08:50:37;;;;;;;25.88;4.80;;;;;;;-146.64;100.00;41563.09;5102368;28;20071;-76
2022/01/09 08:53:03;;;;;;;40.35;5.60;;;;;;;-146.64;100.00;41274.34;5106323;27;20038;-76
2022/01/09 08:55:28;;;;;;;25.55;5.10;;;;;;;-146.64;100.00;41429.97;5098190;28;20027;-76
2022/01/09 08:57:57;;;;;;;31.15;4.60;;;;;;;-146.64;100.00;41434.06;5105944;27;20080;-76
2022/01/09 09:00:22;;;;;;;22.63;3.83;;;;;;;-146.64;100.00;41151.50;5106985;28;20019;-76
2022/01/09 09:02:48;;;;;;;30.63;5.25;;;;;;;-146.64;100.00;41110.56;5106010;27;20046;-76
2022/01/09 09:05:13;;;;;;;25.60;4.15;;;;;;;-146.64;100.00;41053.22;5079578;28;20064;-76
2022/01/09 09:07:39;;;;;;;25.73;6.13;;;;;;;-146.64;100.00;41147.41;5102321;27;20050;-77
2022/01/09 09:10:04;;;;;;;30.05;5.13;;;;;;;-146.64;100.00;41143.31;5111275;28;20023;-76
2022/01/09 09:12:31;;;;;;;28.40;4.60;;;;;;;-146.64;100.00;40991.78;5111245;27;20057;-76
2022/01/09 09:14:59;;;;;;;23.15;4.57;;;;;;;-146.64;100.00;40864.84;5112111;27;20036;-76
2022/01/09 09:17:24;;;;;;;32.60;3.90;;;;;;;-146.64;100.00;40799.34;5104056;27;20023;-77
2022/01/09 09:19:49;;;;;;;16.42;3.33;;;;;;;-146.64;100.00;40868.94;5111566;28;20027;-76
2022/01/09 09:22:15;;;;;;;19.30;3.33;;;;;;;-146.64;100.00;41262.06;5100232;27;20039;-76
2022/01/09 09:24:40;;;;;;;23.27;3.92;;;;;;;-146.64;100.00;40934.47;5111930;28;20022;-76
2022/01/09 09:27:06;;;;;;;22.88;3.65;;;;;;;-146.64;100.00;41180.16;5109176;27;20027;-76
2022/01/09 09:29:31;;;;;;;17.23;3.22;;;;;;;-146.64;100.00;41438.16;5092414;28;20399;-76
2022/01/09 09:31:56;;;;;;;20.30;4.25;;;;;;;-146.64;100.00;41978.81;5106126;28;20035;-77
2022/01/09 09:34:21;;;;;;;26.35;4.38;;;;;;;-146.64;100.00;42372.03;5093498;28;20027;-76
2022/01/09 09:36:47;;;;;;;21.90;3.72;;;;;;;-146.64;100.00;42443.72;5105577;28;20036;-77
2022/01/09 09:39:13;;;;;;;22.27;3.97;;;;;;;-146.64;100.00;42296.25;5105189;28;20034;-76
2022/01/09 09:41:41;;;;;;;23.52;4.65;;;;;;;-146.64;100.00;42363.84;5103966;28;20106;-76
2022/01/09 09:44:09;;;;;;;16.55;4.82;;;;;;;-146.64;100.00;42308.53;5109600;28;20031;-76
2022/01/09 09:46:34;;;;;;;27.45;5.13;;;;;;;-146.64;100.00;42253.25;5092817;28;20037;-76
2022/01/09 09:49:00;;;;;;;20.10;4.28;;;;;;;-146.64;100.00;41397.22;5093419;28;20024;-76
2022/01/09 09:51:27;;;;;;;26.00;4.47;;;;;;;-146.64;100.00;40946.75;5093251;28;20127;-76
2022/01/09 09:53:52;;;;;;;30.38;3.85;;;;;;;-146.64;100.00;40623.28;5084334;27;20032;-76
2022/01/09 09:56:18;;;;;;;33.95;4.38;;;;;;;-146.64;100.00;40389.88;5097045;28;20094;-76
2022/01/09 09:58:43;;;;;;;24.77;3.78;;;;;;;-146.64;100.00;40410.34;5100277;27;20026;-77
2022/01/09 10:01:22;;;;;;;19.08;3.90;;;;;;;-146.64;100.00;40344.84;5111321;28;20114;-76
2022/01/09 10:03:54;;;;;;;22.65;3.10;;;;;;;-146.64;100.00;40357.13;5101127;27;20038;-76
2022/01/09 10:06:42;;;;;;;28.75;3.30;;;;;;;-146.64;100.00;40353.03;5091688;28;20035;-76
2022/01/09 10:09:12;;;;;;;29.47;4.03;;;;;;;-146.64;100.00;40166.75;5107128;27;20032;-76
2022/01/09 10:11:49;;;;;;;23.88;3.38;;;;;;;-146.64;100.00;40271.16;5107542;28;20127;-77
2022/01/09 10:14:25;;;;;;;29.08;3.72;;;;;;;-146.64;100.00;40211.78;5102416;28;20042;-77
2022/01/09 10:17:13;;;;;;;20.52;3.67;;;;;;;-146.64;100.00;40213.84;5102669;27;20028;-76
2022/01/09 10:19:57;;;;;;;16.30;4.00;;;;;;;-146.64;100.00;40230.22;5106646;28;20454;-77
2022/01/09 10:22:24;;;;;;;24.13;3.15;;;;;;;-146.64;100.00;40195.41;5099917;28;20036;-77
2022/01/09 10:24:50;;;;;;;24.80;3.92;;;;;;;-146.64;100.00;40217.94;5105359;28;20027;-76
2022/01/09 10:27:30;;;;;;;36.65;5.28;;;;;;;-146.64;100.00;40201.56;5107161;28;20081;-76
2022/01/09 10:29:55;;;;;;;26.90;5.97;;;;;;;-146.64;100.00;40158.56;5088541;28;20032;-76
2022/01/09 10:32:25;;;;;;;26.80;4.00;;;;;;;-146.64;100.00;40187.22;5099958;27;20478;-77
2022/01/09 10:35:08;;;;;;;19.85;4.65;;;;;;;-146.64;100.00;40271.16;5109012;28;20038;-77
2022/01/09 10:37:35;;;;;;;17.33;3.65;;;;;;;-146.64;100.00;40172.91;5107524;27;20024;-76
2022/01/09 10:40:01;;;;;;;22.73;3.70;;;;;;;-146.64;100.00;40205.66;5094502;28;20056;-76
2022/01/09 10:42:27;;;;;;;28.60;4.10;;;;;;;-146.64;100.00;40224.06;5107710;28;20418;-77
2022/01/09 10:44:52;;;;;;;23.20;3.92;;;;;;;-146.64;100.00;40164.72;5092315;28;20065;-76
2022/01/09 10:47:18;;;;;;;25.63;3.60;;;;;;;-146.64;100.00;40230.22;5102046;27;20467;-76
2022/01/09 10:49:50;;;;;;;24.20;3.35;;;;;;;-146.64;100.00;40179.03;5104443;27;20390;-76
2022/01/09 10:52:38;;;;;;;31.52;4.00;;;;;;;-146.64;100.00;40213.84;5119690;27;20052;-76
2022/01/09 10:55:07;;;;;;;22.23;3.72;;;;;;;-146.64;100.00;40189.28;5102651;27;20084;-76
2022/01/09 10:57:37;;;;;;;24.48;5.10;;;;;;;-146.64;100.00;40185.19;5085407;27;20042;-76
2022/01/09 11:00:11;;;;;;;25.75;4.40;;;;;;;-146.64;100.00;40058.25;5087489;28;20012;-76